createdAt,value
2023-01-29T00:02:05.462Z,3.60
2023-01-29T00:04:33.266Z,3.60
2023-01-29T00:07:00.794Z,3.60
2023-01-29T00:09:29.203Z,3.60
2023-01-29T00:11:57.016Z,3.50
2023-01-29T00:14:24.284Z,3.50
2023-01-29T00:16:51.496Z,3.50
2023-01-29T00:19:19.613Z,3.50
2023-01-29T00:21:46.924Z,3.50
2023-01-29T00:24:14.356Z,3.50
2023-01-29T00:26:42.576Z,3.40
2023-01-29T00:29:10.063Z,3.40
2023-01-29T00:31:37.336Z,3.40
2023-01-29T00:34:04.772Z,3.40
2023-01-29T00:36:31.894Z,3.40
2023-01-29T00:39:03.613Z,3.40
2023-01-29T00:41:52.942Z,3.40
2023-01-29T00:44:40.125Z,3.40
2023-01-29T00:47:27.974Z,3.30
2023-01-29T00:49:55.726Z,3.30
2023-01-29T00:52:24.049Z,3.30
2023-01-29T00:54:53.463Z,3.30
2023-01-29T00:57:21.143Z,3.30
2023-01-29T00:59:48.606Z,3.30
2023-01-29T01:02:35.923Z,3.30
2023-01-29T01:05:07.816Z,3.30
2023-01-29T01:07:35.191Z,3.20
2023-01-29T01:10:22.375Z,3.20
2023-01-29T01:12:53.614Z,3.20
2023-01-29T01:15:22.214Z,3.20
2023-01-29T01:17:54.800Z,3.20
2023-01-29T01:20:23.676Z,3.20
2023-01-29T01:22:53.605Z,3.10
2023-01-29T01:25:22.769Z,3.10
2023-01-29T01:27:56.235Z,3.10
2023-01-29T01:30:24.350Z,3.10
2023-01-29T01:32:51.695Z,3.00
2023-01-29T01:35:19.175Z,2.90
2023-01-29T01:37:46.554Z,2.90
2023-01-29T01:40:20.261Z,2.80
2023-01-29T01:42:52.859Z,2.70
2023-01-29T01:45:23.274Z,2.70
2023-01-29T01:48:04.227Z,2.70
2023-01-29T01:50:44.462Z,2.60
2023-01-29T01:53:17.123Z,2.60
2023-01-29T01:55:59.139Z,2.50
2023-01-29T01:58:32.224Z,2.40
2023-01-29T02:00:59.843Z,2.40
2023-01-29T02:03:49.888Z,2.30
2023-01-29T02:06:37.353Z,2.30
2023-01-29T02:09:37.804Z,2.30
2023-01-29T02:12:10.817Z,2.30
2023-01-29T02:14:40.372Z,2.20
2023-01-29T02:17:10.384Z,2.20
2023-01-29T02:20:00.958Z,2.20
2023-01-29T02:23:07.974Z,2.20
2023-01-29T02:26:15.044Z,2.20
2023-01-29T02:29:22.375Z,2.20
2023-01-29T02:32:02.888Z,2.20
2023-01-29T02:35:24.194Z,2.20
2023-01-29T02:38:31.333Z,2.30
2023-01-29T02:41:04.823Z,2.30
2023-01-29T02:43:55.831Z,2.40
2023-01-29T02:46:51.246Z,2.40
2023-01-29T02:49:42.514Z,2.40
2023-01-29T02:52:36.768Z,2.50
2023-01-29T02:55:43.877Z,2.60
2023-01-29T02:58:22.633Z,2.60
2023-01-29T03:00:51.601Z,2.60
2023-01-29T03:03:31.812Z,2.60
2023-01-29T03:06:12.272Z,2.60
2023-01-29T03:08:45.770Z,2.60
2023-01-29T03:11:15.948Z,2.60
2023-01-29T03:14:05.954Z,2.60
2023-01-29T03:16:53.963Z,2.60
2023-01-29T03:19:44.651Z,2.60
2023-01-29T03:22:23.526Z,2.60
2023-01-29T03:25:19.529Z,2.60
2023-01-29T03:28:15.252Z,2.60
2023-01-29T03:31:10.627Z,2.60
2023-01-29T03:33:49.879Z,2.70
2023-01-29T03:36:27.043Z,2.60
2023-01-29T03:38:54.583Z,2.60
2023-01-29T03:41:47.734Z,2.60
2023-01-29T03:44:21.973Z,2.60
2023-01-29T03:46:58.084Z,2.60
2023-01-29T03:49:54.923Z,2.50
2023-01-29T03:52:48.686Z,2.50
2023-01-29T03:55:56.433Z,2.50
2023-01-29T03:58:40.103Z,2.40
2023-01-29T04:01:20.006Z,2.40
2023-01-29T04:03:52.302Z,2.30
2023-01-29T04:06:27.501Z,2.40
2023-01-29T04:09:16.016Z,2.40
2023-01-29T04:11:50.543Z,2.40
2023-01-29T04:14:18.575Z,2.40
2023-01-29T04:16:55.925Z,2.40
2023-01-29T04:19:44.003Z,2.40
2023-01-29T04:22:23.866Z,2.30
2023-01-29T04:24:51.893Z,2.30
2023-01-29T04:27:30.082Z,2.30
2023-01-29T04:30:17.760Z,2.40
2023-01-29T04:33:18.774Z,2.40
2023-01-29T04:36:25.753Z,2.30
2023-01-29T04:39:19.664Z,2.30
2023-01-29T04:42:10.662Z,2.40
2023-01-29T04:44:55.625Z,2.30
2023-01-29T04:47:52.994Z,2.30
2023-01-29T04:50:31.993Z,2.20
2023-01-29T04:53:15.143Z,2.10
2023-01-29T04:56:12.131Z,2.10
2023-01-29T04:58:50.045Z,2.00
2023-01-29T05:01:19.417Z,2.00
2023-01-29T05:03:50.492Z,2.00
2023-01-29T05:06:20.129Z,1.90
2023-01-29T05:08:49.247Z,1.80
2023-01-29T05:11:18.429Z,1.70
2023-01-29T05:13:48.177Z,1.70
2023-01-29T05:16:42.227Z,1.60
2023-01-29T05:19:11.496Z,1.50
2023-01-29T05:21:41.174Z,1.40
2023-01-29T05:24:33.368Z,1.30
2023-01-29T05:27:20.508Z,1.30
2023-01-29T05:29:48.297Z,1.30
2023-01-29T05:32:16.586Z,1.30
2023-01-29T05:34:43.871Z,1.30
2023-01-29T05:37:11.488Z,1.30
2023-01-29T05:39:38.759Z,1.30
2023-01-29T05:42:06.009Z,1.20
2023-01-29T05:44:33.350Z,1.30
2023-01-29T05:47:02.731Z,1.20
2023-01-29T05:49:30.058Z,1.20
2023-01-29T05:51:57.359Z,1.20
2023-01-29T05:54:24.638Z,1.20
2023-01-29T05:56:51.830Z,1.20
2023-01-29T05:59:19.140Z,1.20
2023-01-29T06:01:46.443Z,1.20
2023-01-29T06:04:13.720Z,1.30
2023-01-29T06:06:40.910Z,1.30
2023-01-29T06:09:10.348Z,1.20
2023-01-29T06:11:37.527Z,1.30
2023-01-29T06:14:05.148Z,1.20
2023-01-29T06:16:32.417Z,1.20
2023-01-29T06:18:59.779Z,1.20
2023-01-29T06:21:26.927Z,1.20
2023-01-29T06:23:54.461Z,1.20
2023-01-29T06:26:21.647Z,1.20
2023-01-29T06:28:50.127Z,1.20
2023-01-29T06:31:38.451Z,1.10
2023-01-29T06:34:07.073Z,1.10
2023-01-29T06:36:35.029Z,1.10
2023-01-29T06:39:02.351Z,1.10
2023-01-29T06:41:29.727Z,1.00
2023-01-29T06:43:56.998Z,1.00
2023-01-29T06:46:24.200Z,1.00
2023-01-29T06:48:51.480Z,0.90
2023-01-29T06:51:18.947Z,1.00
2023-01-29T06:53:46.962Z,0.90
2023-01-29T06:56:14.299Z,0.90
2023-01-29T06:58:43.631Z,0.90
2023-01-29T07:01:17.489Z,0.90
2023-01-29T07:03:52.898Z,0.90
2023-01-29T07:06:20.618Z,0.90
2023-01-29T07:08:47.848Z,0.90
2023-01-29T07:11:15.141Z,0.90
2023-01-29T07:13:42.397Z,0.80
2023-01-29T07:16:10.498Z,0.80
2023-01-29T07:18:37.857Z,0.80
2023-01-29T07:21:09.407Z,0.80
2023-01-29T07:23:36.730Z,0.80
2023-01-29T07:26:06.260Z,0.80
2023-01-29T07:28:38.186Z,0.80
2023-01-29T07:31:06.385Z,0.80
2023-01-29T07:33:34.439Z,0.80
2023-01-29T07:36:01.689Z,0.80
2023-01-29T07:38:28.986Z,0.80
2023-01-29T07:40:56.308Z,0.80
2023-01-29T07:43:24.974Z,0.80
2023-01-29T07:45:52.951Z,0.80
2023-01-29T07:48:20.329Z,0.80
2023-01-29T07:50:55.761Z,0.80
2023-01-29T07:53:23.561Z,0.90
2023-01-29T07:55:51.107Z,0.90
2023-01-29T07:58:18.347Z,0.90
2023-01-29T08:00:46.012Z,1.00
2023-01-29T08:03:16.402Z,1.00
2023-01-29T08:05:44.857Z,1.00
2023-01-29T08:08:12.627Z,1.00
2023-01-29T08:10:40.977Z,0.90
2023-01-29T08:13:09.288Z,0.90
2023-01-29T08:15:39.067Z,0.90
2023-01-29T08:18:07.002Z,0.90
2023-01-29T08:20:34.189Z,1.00
2023-01-29T08:23:11.483Z,1.00
2023-01-29T08:25:38.788Z,1.10
2023-01-29T08:28:06.031Z,1.20
2023-01-29T08:30:34.925Z,1.30
2023-01-29T08:33:03.449Z,1.40
2023-01-29T08:35:30.843Z,1.40
2023-01-29T08:38:00.551Z,1.40
2023-01-29T08:40:29.690Z,1.50
2023-01-29T08:43:02.681Z,1.60
2023-01-29T08:45:31.351Z,1.70
2023-01-29T08:47:58.532Z,1.80
2023-01-29T08:50:25.997Z,1.90
2023-01-29T08:52:58.127Z,1.90
2023-01-29T08:55:26.242Z,2.10
2023-01-29T08:57:53.506Z,2.20
2023-01-29T09:00:21.089Z,2.30
2023-01-29T09:02:48.340Z,2.40
2023-01-29T09:05:16.058Z,2.40
2023-01-29T09:07:43.416Z,2.50
2023-01-29T09:10:12.396Z,2.50
2023-01-29T09:12:39.682Z,2.60
2023-01-29T09:15:07.495Z,2.70
2023-01-29T09:17:34.825Z,2.80
2023-01-29T09:20:02.332Z,2.80
2023-01-29T09:22:29.546Z,2.80
2023-01-29T09:24:56.800Z,2.90
2023-01-29T09:27:24.170Z,3.00
2023-01-29T09:29:51.804Z,3.00
2023-01-29T09:32:37.666Z,3.10
2023-01-29T09:35:06.714Z,3.30
2023-01-29T09:37:33.945Z,3.40
2023-01-29T09:40:01.195Z,3.50
2023-01-29T09:42:44.255Z,3.60
2023-01-29T09:45:16.169Z,3.60
2023-01-29T09:47:44.857Z,3.70
2023-01-29T09:50:26.615Z,3.80
2023-01-29T09:53:11.411Z,3.90
2023-01-29T09:55:46.055Z,4.10
2023-01-29T09:58:37.694Z,4.10
2023-01-29T10:01:24.980Z,4.30
2023-01-29T10:04:32.086Z,4.40
2023-01-29T10:07:39.185Z,4.50
2023-01-29T10:10:32.947Z,4.70
2023-01-29T10:13:32.427Z,4.80
2023-01-29T10:16:30.795Z,5.00
2023-01-29T10:19:34.365Z,5.20
2023-01-29T10:22:42.114Z,5.30
2023-01-29T10:25:16.388Z,5.60
2023-01-29T10:27:54.735Z,5.70
2023-01-29T10:30:44.748Z,5.80
2023-01-29T10:33:18.015Z,5.90
2023-01-29T10:35:53.809Z,6.00
2023-01-29T10:38:37.784Z,6.10
2023-01-29T10:41:30.795Z,6.20
2023-01-29T10:44:27.766Z,6.30
2023-01-29T10:47:21.965Z,6.40
2023-01-29T10:50:09.095Z,6.60
2023-01-29T10:53:05.329Z,6.70
2023-01-29T10:56:13.954Z,6.80
2023-01-29T10:58:55.100Z,7.10
2023-01-29T11:01:22.925Z,7.30
2023-01-29T11:04:11.991Z,7.40
2023-01-29T11:06:39.393Z,7.50
2023-01-29T11:12:23.716Z,7.80
2023-01-29T11:15:32.295Z,7.80
2023-01-29T11:18:15.803Z,8.00
2023-01-29T11:20:45.232Z,8.10
2023-01-29T11:23:33.225Z,8.10
2023-01-29T11:26:01.545Z,8.10
2023-01-29T11:28:49.757Z,8.20
2023-01-29T11:31:38.749Z,8.10
2023-01-29T11:34:16.786Z,8.20
2023-01-29T11:36:45.134Z,8.20
2023-01-29T11:39:20.845Z,8.30
2023-01-29T11:42:05.326Z,8.30
2023-01-29T11:44:52.445Z,8.30
2023-01-29T11:47:24.285Z,8.10
2023-01-29T11:49:57.326Z,8.10
2023-01-29T11:52:34.306Z,8.20
2023-01-29T11:55:06.827Z,8.20
2023-01-29T11:57:40.775Z,8.30
2023-01-29T12:00:25.137Z,8.30
2023-01-29T12:02:57.258Z,8.20
2023-01-29T12:05:26.590Z,8.20
2023-01-29T12:08:00.014Z,8.20
2023-01-29T12:10:38.541Z,8.20
2023-01-29T12:13:43.477Z,8.20
2023-01-29T12:16:30.608Z,8.20
2023-01-29T12:19:24.024Z,8.20
2023-01-29T12:22:16.226Z,8.10
2023-01-29T12:25:23.305Z,8.10
2023-01-29T12:28:00.906Z,8.00
2023-01-29T12:30:36.679Z,8.00
2023-01-29T12:33:19.156Z,8.00
2023-01-29T12:35:57.615Z,8.00
2023-01-29T12:38:24.889Z,8.00
2023-01-29T12:41:21.664Z,8.00
2023-01-29T12:43:56.475Z,7.90
2023-01-29T12:46:34.893Z,8.00
2023-01-29T12:49:07.436Z,8.00
2023-01-29T12:51:55.974Z,8.10
2023-01-29T12:54:39.838Z,8.10
2023-01-29T12:57:44.818Z,8.00
2023-01-29T13:00:18.632Z,8.00
2023-01-29T13:03:17.270Z,8.00
2023-01-29T13:05:51.946Z,8.10
2023-01-29T13:08:27.024Z,8.10
2023-01-29T13:10:57.396Z,8.10
2023-01-29T13:13:38.819Z,8.00
2023-01-29T13:16:11.291Z,8.10
2023-01-29T13:18:46.375Z,8.20
2023-01-29T13:21:17.618Z,8.10
2023-01-29T13:23:48.655Z,8.20
2023-01-29T13:26:23.251Z,8.10
2023-01-29T13:28:51.986Z,8.10
2023-01-29T13:31:29.790Z,8.20
2023-01-29T13:34:12.496Z,8.30
2023-01-29T13:36:45.677Z,8.20
2023-01-29T13:39:34.108Z,8.00
2023-01-29T13:42:04.014Z,7.80
2023-01-29T13:44:35.855Z,7.60
2023-01-29T13:47:08.955Z,7.50
2023-01-29T13:49:44.362Z,7.40
2023-01-29T13:52:36.519Z,7.50
2023-01-29T13:55:06.790Z,7.60
2023-01-29T13:57:48.922Z,7.70
2023-01-29T14:00:51.411Z,7.70
2023-01-29T14:04:03.347Z,7.60
2023-01-29T14:06:44.485Z,7.40
2023-01-29T14:09:50.870Z,7.10
2023-01-29T14:12:39.336Z,7.00
2023-01-29T14:15:21.313Z,7.20
2023-01-29T14:18:08.897Z,7.30
2023-01-29T14:20:45.449Z,7.50
2023-01-29T14:23:42.053Z,7.70
2023-01-29T14:26:33.533Z,7.80
2023-01-29T14:29:02.947Z,7.90
2023-01-29T14:31:31.663Z,7.90
2023-01-29T14:34:03.607Z,7.60
2023-01-29T14:36:39.699Z,7.40
2023-01-29T14:39:07.809Z,7.20
2023-01-29T14:41:36.372Z,7.10
2023-01-29T14:44:43.432Z,7.00
2023-01-29T14:47:33.575Z,7.10
2023-01-29T14:50:04.224Z,7.20
2023-01-29T14:52:54.051Z,7.30
2023-01-29T14:55:41.567Z,7.30
2023-01-29T14:58:16.896Z,7.30
2023-01-29T15:00:46.575Z,7.40
2023-01-29T15:03:28.478Z,7.50
2023-01-29T15:05:59.252Z,7.50
2023-01-29T15:09:06.260Z,7.50
2023-01-29T15:11:44.312Z,7.40
2023-01-29T15:14:24.187Z,7.20
2023-01-29T15:17:11.400Z,7.10
2023-01-29T15:19:44.952Z,7.10
2023-01-29T15:22:36.440Z,7.00
2023-01-29T15:25:08.116Z,7.00
2023-01-29T15:27:35.810Z,7.00
2023-01-29T15:30:06.122Z,7.00
2023-01-29T15:32:36.757Z,7.00
2023-01-29T15:35:27.751Z,7.00
2023-01-29T15:38:18.269Z,6.90
2023-01-29T15:41:25.349Z,6.90
2023-01-29T15:43:58.349Z,6.80
2023-01-29T15:46:34.288Z,6.80
2023-01-29T15:49:07.100Z,6.70
2023-01-29T15:51:34.489Z,6.70
2023-01-29T15:54:04.646Z,6.60
2023-01-29T15:56:38.390Z,6.60
2023-01-29T15:59:09.803Z,6.50
2023-01-29T16:01:37.247Z,6.60
2023-01-29T16:04:04.967Z,6.60
2023-01-29T16:06:41.051Z,6.50
2023-01-29T16:09:08.721Z,6.50
2023-01-29T16:11:36.439Z,6.40
2023-01-29T16:14:05.183Z,6.40
2023-01-29T16:16:32.735Z,6.30
2023-01-29T16:19:01.370Z,6.30
2023-01-29T16:21:38.712Z,6.30
2023-01-29T16:24:10.174Z,6.20
2023-01-29T16:26:43.604Z,6.20
2023-01-29T16:29:14.113Z,6.30
2023-01-29T16:31:44.723Z,6.30
2023-01-29T16:34:25.640Z,6.30
2023-01-29T16:36:54.658Z,6.30
2023-01-29T16:39:30.198Z,6.20
2023-01-29T16:42:23.317Z,6.20
2023-01-29T16:44:56.914Z,6.20
2023-01-29T16:47:31.836Z,6.10
2023-01-29T16:50:00.873Z,6.10
2023-01-29T16:52:34.983Z,6.00
2023-01-29T16:55:20.623Z,6.00
2023-01-29T16:57:54.144Z,6.00
2023-01-29T17:00:27.923Z,5.90
2023-01-29T17:03:05.023Z,5.90
2023-01-29T17:05:37.143Z,5.80
2023-01-29T17:08:06.072Z,5.70
2023-01-29T17:10:33.862Z,5.70
2023-01-29T17:13:06.081Z,5.70
2023-01-29T17:15:51.624Z,5.60
2023-01-29T17:18:22.562Z,5.50
2023-01-29T17:20:50.959Z,5.40
2023-01-29T17:23:18.121Z,5.40
2023-01-29T17:25:47.257Z,5.30
2023-01-29T17:28:15.877Z,5.20
2023-01-29T17:30:48.384Z,5.10
2023-01-29T17:33:22.871Z,5.10
2023-01-29T17:35:50.606Z,5.10
2023-01-29T17:38:26.101Z,5.00
2023-01-29T17:41:02.371Z,4.90
2023-01-29T17:43:29.682Z,4.80
2023-01-29T17:45:56.965Z,4.80
2023-01-29T17:48:27.358Z,4.80
2023-01-29T17:51:02.096Z,4.80
2023-01-29T17:53:44.315Z,4.70
2023-01-29T17:56:18.820Z,4.70
2023-01-29T17:58:46.202Z,4.70
2023-01-29T18:01:13.423Z,4.70
2023-01-29T18:03:40.851Z,4.60
2023-01-29T18:06:09.931Z,4.60
2023-01-29T18:08:39.627Z,4.60
2023-01-29T18:11:11.471Z,4.60
2023-01-29T18:13:38.725Z,4.50
2023-01-29T18:16:06.147Z,4.50
2023-01-29T18:18:33.533Z,4.30
2023-01-29T18:21:00.843Z,4.00
2023-01-29T18:23:29.612Z,3.90
2023-01-29T18:25:57.867Z,3.80
2023-01-29T18:28:25.312Z,3.60
2023-01-29T18:30:52.903Z,3.50
2023-01-29T18:33:20.264Z,3.50
2023-01-29T18:35:48.328Z,3.40
2023-01-29T18:38:16.269Z,3.40
2023-01-29T18:40:43.770Z,3.30
2023-01-29T18:43:11.055Z,3.30
2023-01-29T18:45:38.254Z,3.40
2023-01-29T18:48:06.065Z,3.50
2023-01-29T18:50:33.899Z,3.50
2023-01-29T18:53:01.447Z,3.40
2023-01-29T18:55:28.717Z,3.30
2023-01-29T18:58:25.118Z,3.30
2023-01-29T19:00:44.525Z,3.20
2023-01-29T19:03:11.690Z,3.20
2023-01-29T19:05:39.279Z,3.20
2023-01-29T19:08:06.696Z,3.20
2023-01-29T19:10:34.914Z,3.20
2023-01-29T19:13:02.150Z,3.20
2023-01-29T19:15:29.657Z,3.20
2023-01-29T19:17:56.883Z,3.20
2023-01-29T19:20:24.211Z,3.20
2023-01-29T19:22:51.490Z,3.30
2023-01-29T19:25:19.775Z,3.30
2023-01-29T19:27:47.160Z,3.30
2023-01-29T19:30:14.683Z,3.30
2023-01-29T19:32:41.864Z,3.30
2023-01-29T19:35:09.125Z,3.30
2023-01-29T19:37:36.530Z,3.30
2023-01-29T19:40:04.063Z,3.30
2023-01-29T19:42:31.459Z,3.30
2023-01-29T19:44:58.741Z,3.20
2023-01-29T19:47:25.880Z,3.20
2023-01-29T19:49:53.159Z,3.20
2023-01-29T19:52:55.326Z,3.30
2023-01-29T19:55:22.743Z,3.20
2023-01-29T19:57:53.411Z,3.20
2023-01-29T20:00:21.592Z,3.20
2023-01-29T20:02:48.934Z,3.10
2023-01-29T20:05:18.640Z,3.10
2023-01-29T20:07:46.085Z,3.10
2023-01-29T20:10:17.679Z,3.10
2023-01-29T20:12:46.121Z,3.10
2023-01-29T20:15:15.049Z,3.10
2023-01-29T20:17:43.267Z,3.00
2023-01-29T20:20:10.939Z,3.00
2023-01-29T20:22:38.167Z,3.00
2023-01-29T20:25:06.191Z,2.90
2023-01-29T20:27:33.411Z,2.90
2023-01-29T20:30:00.656Z,2.90
2023-01-29T20:32:28.074Z,2.90
2023-01-29T20:34:55.240Z,2.80
2023-01-29T20:37:22.515Z,2.70
2023-01-29T20:39:49.840Z,2.70
2023-01-29T20:42:17.082Z,2.70
2023-01-29T20:44:44.334Z,2.70
2023-01-29T20:47:12.340Z,2.80
2023-01-29T20:49:39.509Z,2.80
2023-01-29T20:52:07.666Z,2.80
2023-01-29T20:54:34.960Z,2.80
2023-01-29T20:57:02.351Z,2.80
2023-01-29T20:59:29.661Z,2.80
2023-01-29T21:01:57.054Z,2.80
2023-01-29T21:04:24.261Z,2.70
2023-01-29T21:06:51.548Z,2.60
2023-01-29T21:09:18.777Z,2.60
2023-01-29T21:11:46.144Z,2.50
2023-01-29T21:14:14.201Z,2.50
2023-01-29T21:16:41.669Z,2.50
2023-01-29T21:19:10.078Z,2.50
2023-01-29T21:21:37.436Z,2.40
2023-01-29T21:24:04.866Z,2.50
2023-01-29T21:26:32.157Z,2.50
2023-01-29T21:28:59.372Z,2.50
2023-01-29T21:31:26.839Z,2.50
2023-01-29T21:33:54.070Z,2.60
2023-01-29T21:36:21.486Z,2.70
2023-01-29T21:38:48.717Z,2.70
2023-01-29T21:41:15.930Z,2.60
2023-01-29T21:43:44.748Z,2.60
2023-01-29T21:46:12.419Z,2.60
2023-01-29T21:48:40.631Z,2.60
2023-01-29T21:51:08.067Z,2.60
2023-01-29T21:53:36.883Z,2.70
2023-01-29T21:56:05.746Z,2.70
2023-01-29T21:58:33.172Z,2.70
2023-01-29T22:01:35.764Z,2.70
2023-01-29T22:03:47.901Z,2.70
2023-01-29T22:06:15.866Z,2.60
2023-01-29T22:08:43.164Z,2.60
2023-01-29T22:11:10.949Z,2.70
2023-01-29T22:13:38.457Z,2.60
2023-01-29T22:16:06.152Z,2.70
2023-01-29T22:18:33.970Z,2.60
2023-01-29T22:21:03.023Z,2.60
2023-01-29T22:23:31.538Z,2.60
2023-01-29T22:26:18.686Z,2.60
2023-01-29T22:28:46.058Z,2.60
2023-01-29T22:31:13.316Z,2.60
2023-01-29T22:33:40.652Z,2.50
2023-01-29T22:36:08.278Z,2.50
2023-01-29T22:38:35.676Z,2.50
2023-01-29T22:41:04.727Z,2.50
2023-01-29T22:43:32.088Z,2.50
2023-01-29T22:45:59.383Z,2.50
2023-01-29T22:48:28.036Z,2.40
2023-01-29T22:51:09.472Z,2.30
2023-01-29T22:53:54.956Z,2.20
2023-01-29T22:56:25.518Z,2.10
2023-01-29T22:58:54.219Z,1.90
2023-01-29T23:01:24.170Z,1.90
2023-01-29T23:03:51.725Z,1.80
2023-01-29T23:06:21.670Z,1.80
2023-01-29T23:08:49.733Z,1.90
2023-01-29T23:11:20.554Z,1.90
2023-01-29T23:13:50.716Z,1.90
2023-01-29T23:16:19.136Z,2.00
2023-01-29T23:18:50.441Z,2.00
2023-01-29T23:21:18.261Z,1.80
2023-01-29T23:23:45.733Z,1.80
2023-01-29T23:26:33.784Z,1.70
2023-01-29T23:29:01.236Z,1.80
2023-01-29T23:31:28.456Z,1.80
2023-01-29T23:33:55.992Z,1.80
2023-01-29T23:36:23.171Z,1.80
2023-01-29T23:38:50.521Z,1.80
2023-01-29T23:41:17.833Z,1.90
2023-01-29T23:43:45.113Z,1.90
2023-01-29T23:46:12.372Z,1.80
2023-01-29T23:48:39.796Z,1.80
2023-01-29T23:51:06.979Z,1.70
2023-01-29T23:53:34.191Z,1.60
2023-01-29T23:56:04.709Z,1.60
2023-01-29T23:58:33.439Z,1.60
